Aeroporto :
LOGIN :

Iscrizione | Disclaimer

   EN    FR    IT 

 










Sommario :    VFR   VFR Marginale   IFR   IFR Intensivo   IFR Molto Intensivo
Visibilità : 
Base nubi : 
>= 8 km
>= 3000ft
5 / 8 km
1000 / 3000 ft
1500m / 5 km
500 / 1000 ft
800 / 1500m
200 / 500 ft
< 800m
< 200 ft
Simboli :   Temporali  Nebbia  Neve Forte  Precipitazioni Forti  Vento > 20 kt
SIGMETs :   Varie  Temporali  Ghiacco  Turbolenza  Onda orograficha  Ceneri Vulcaniche







- Altitudine del aeroporto : 84 ft
- Carte del aeroporto


LFBC - Cazaux

ULTIMO METAR :
  • 170830Z AUTO 11004KT 060V170 CAVOK 24/14 Q1017 NOSIG

METARs OBSOLETI :
  • 170800Z AUTO 11004KT 070V140 CAVOK 22/14 Q1017 NOSIG
  • 170730Z AUTO 08003KT 040V140 CAVOK 20/14 Q1017 NOSIG
  • 170700Z AUTO 10004KT 050V130 CAVOK 19/13 Q1017 NOSIG
  • 170630Z AUTO 06003KT 030V090 CAVOK 18/13 Q1017 NOSIG
  • 170600Z AUTO 04005KT CAVOK 17/13 Q1017 NOSIG

TAF TAF LFBC
Valido dal 17 a 05 ore il 18 a 03 ore UTC


170443Z 1705/1803 02005KT CAVOK
Nessun NOTAM noto per questo aeroporto.



MetMap, La meteo Aeronautica in un colpo d'occhio ! - Copyright ORBIFLY Dicembre 2007 - Disclaimer

ORBIFLY MET'MAP TEAM :

Programmazione e sviluppo : Alexandra Zaïnal
Concezione e sviluppo : Baudouin d'Aumeries
Co-Programmazione e sviluppo : Marc-Olivier Méhu
Supporto tecnico e logistico : Manuel Goepfert
Aiuto per la traduzione : Arnaldo La Scala

Contatto : metmap@orbifly.com




FONTI E CREDITI :

   NOAA